OIIE/IKA METAR and TAF weather

Enter ICAO airport designator
Station Type Date Time Source
OIIE METAR 2022/08/12 14:30 UTC NOAA

OIIE 121430Z 11008KT CAVOK 36/M01 Q1009


Station Type Date Time Source
OIIE Decoded METAR 2022/08/12 14:30 UTC NOAA

Station name not available
Aug 12, 2022 - 10:30 AM EDT / 2022.08.12 1430 UTC
Wind: from the ESE (110 degrees) at 9 MPH (8 KT):0
Visibility: greater than 7 mile(s):0
Temperature: 96 F (36 C)
Dew Point: 30 F (-1 C)
Relative Humidity: 9%
Pressure (altimeter): 29.80 in. Hg (1009 hPa)
ob: OIIE 121430Z 11008KT CAVOK 36/M01 Q1009
cycle: 14

Station Type Date Time Source
OIIE TAF 2022/08/12 12:00 UTC NOAA

TAF OIIE 121100Z 1212/1318 11008KT 8000 NSC
TEMPO 1221/1303 34008KT

Example: see airport list